createdAt,value
2019-02-23T00:00:24.944Z,-3.53
2019-02-23T00:05:29.062Z,-3.49
2019-02-23T00:10:33.575Z,-3.57
2019-02-23T00:15:37.669Z,-3.45
2019-02-23T00:20:43.466Z,-3.29
2019-02-23T00:25:47.611Z,-3.35
2019-02-23T00:31:09.851Z,-3.37
2019-02-23T00:36:13.897Z,-3.28
2019-02-23T00:41:18.997Z,-3.22
2019-02-23T00:46:23.121Z,-3.18
2019-02-23T00:51:27.275Z,-3.15
2019-02-23T00:56:31.293Z,-3.07
2019-02-23T01:01:35.356Z,-2.95
2019-02-23T01:06:39.431Z,-2.92
2019-02-23T01:11:43.569Z,-2.88
2019-02-23T01:16:47.711Z,-2.86
2019-02-23T01:21:52.116Z,-2.80
2019-02-23T01:26:56.202Z,-2.77
2019-02-23T01:32:00.260Z,-2.83
2019-02-23T01:37:04.359Z,-2.77
2019-02-23T01:42:10.475Z,-2.71
2019-02-23T01:47:14.571Z,-2.73
2019-02-23T01:52:18.634Z,-2.88
2019-02-23T01:57:22.752Z,-3.07
2019-02-23T02:02:27.302Z,-3.26
2019-02-23T02:07:31.435Z,-3.40
2019-02-23T02:12:35.451Z,-3.67
2019-02-23T02:17:39.593Z,-3.82
2019-02-23T02:22:43.725Z,-3.86
2019-02-23T02:27:47.808Z,-3.97
2019-02-23T02:32:51.866Z,-3.99
2019-02-23T02:37:56.085Z,-4.09
2019-02-23T02:43:00.147Z,-4.14
2019-02-23T02:48:04.200Z,-4.06
2019-02-23T02:53:10.005Z,-4.07
2019-02-23T02:58:14.190Z,-4.17
2019-02-23T03:03:18.294Z,-4.22
2019-02-23T03:08:22.387Z,-4.17
2019-02-23T03:13:26.532Z,-4.12
2019-02-23T03:18:30.684Z,-4.09
2019-02-23T03:23:40.334Z,-4.11
2019-02-23T03:28:44.442Z,-4.23
2019-02-23T03:34:05.518Z,-4.38
2019-02-23T03:39:09.599Z,-4.44
2019-02-23T03:44:13.614Z,-4.50
2019-02-23T03:49:17.691Z,-4.61
2019-02-23T03:54:21.756Z,-4.70
2019-02-23T03:59:25.822Z,-4.76
2019-02-23T04:04:30.280Z,-4.82
2019-02-23T04:09:34.308Z,-4.77
2019-02-23T04:14:38.443Z,-4.63
2019-02-23T04:19:42.445Z,-4.72
2019-02-23T04:24:46.762Z,-4.70
2019-02-23T04:29:50.833Z,-4.57
2019-02-23T04:34:54.883Z,-4.42
2019-02-23T04:39:58.985Z,-4.21
2019-02-23T04:45:03.597Z,-3.99
2019-02-23T04:50:08.013Z,-3.93
2019-02-23T04:55:12.065Z,-3.93
2019-02-23T05:00:16.112Z,-3.98
2019-02-23T05:05:20.242Z,-4.05
2019-02-23T05:10:24.817Z,-4.11
2019-02-23T05:15:29.284Z,-4.20
2019-02-23T05:20:33.772Z,-4.36
2019-02-23T05:25:37.896Z,-4.34
2019-02-23T05:30:42.154Z,-4.47
2019-02-23T05:35:46.481Z,-4.65
2019-02-23T05:40:50.886Z,-4.61
2019-02-23T05:45:55.253Z,-4.53
2019-02-23T05:50:59.675Z,-4.62
2019-02-23T05:56:03.770Z,-4.67
2019-02-23T06:01:07.831Z,-4.65
2019-02-23T06:06:11.945Z,-4.75
2019-02-23T06:11:16.026Z,-4.89
2019-02-23T06:16:20.216Z,-4.78
2019-02-23T06:21:24.332Z,-4.68
2019-02-23T06:26:28.807Z,-4.59
2019-02-23T06:31:33.120Z,-4.47
2019-02-23T06:36:37.319Z,-4.39
2019-02-23T06:41:41.411Z,-4.30
2019-02-23T06:46:45.592Z,-4.20
2019-02-23T06:51:49.893Z,-3.99
2019-02-23T06:56:54.019Z,-3.83
2019-02-23T07:01:58.111Z,-3.71
2019-02-23T07:07:02.225Z,-3.57
2019-02-23T07:12:06.406Z,-3.42
2019-02-23T07:17:10.496Z,-3.27
2019-02-23T07:22:15.705Z,-3.04
2019-02-23T07:27:20.322Z,-2.86
2019-02-23T07:32:24.511Z,-2.74
2019-02-23T07:37:28.578Z,-2.69
2019-02-23T07:42:34.522Z,-2.55
2019-02-23T07:47:38.622Z,-2.49
2019-02-23T07:52:43.850Z,-2.36
2019-02-23T07:57:47.946Z,-2.35
2019-02-23T08:02:52.267Z,-2.22
2019-02-23T08:07:56.519Z,-2.01
2019-02-23T08:13:00.563Z,-1.73
2019-02-23T08:18:05.008Z,-1.55
2019-02-23T08:23:09.309Z,-1.32
2019-02-23T08:28:13.397Z,-0.93
2019-02-23T08:33:17.449Z,-0.73
2019-02-23T08:38:21.616Z,-0.63
2019-02-23T08:43:25.662Z,-0.65
2019-02-23T08:48:29.716Z,-0.47
2019-02-23T08:53:33.787Z,-0.19
2019-02-23T08:58:37.884Z,0.14
2019-02-23T09:03:42.025Z,0.36
2019-02-23T09:08:47.528Z,0.62
2019-02-23T09:13:51.629Z,0.56
2019-02-23T09:18:55.812Z,0.59
2019-02-23T09:23:59.851Z,0.68
2019-02-23T09:29:03.962Z,0.80
2019-02-23T09:34:08.013Z,1.15
2019-02-23T09:39:12.031Z,1.25
2019-02-23T09:44:16.095Z,1.48
2019-02-23T09:49:20.243Z,1.55
2019-02-23T09:54:24.315Z,1.61
2019-02-23T09:59:28.482Z,1.65
2019-02-23T10:04:32.585Z,2.20
2019-02-23T10:09:36.693Z,2.42
2019-02-23T10:14:40.780Z,2.50
